Details From ESOW - Stockholm Vasteras
To ESSD - Borlange
Flight Number -
Tags generated
Created
Modified
Stats Distance 60 nm / 112 km
Max Altitude 0 ft / 0 m
Waypoints 3
Social Downloads 6
Likes 0
Share

Download

Looking for another format? Having issues loading an existing format? Contact us
Advertisement - Login to hide

Notes

Basic altitude profile: - Ascent Rate: 2500ft/min - Ascent Speed: 250kts - Cruise Altitude: 35000ft - Cruise Speed: 420kts - Descent Rate: 1500ft/min - Descent Speed: 250kts Options: - Use NATs: yes - Use PACOTS: yes - Use low airways: yes - Use high airways: yes

Route

ESOW BOR ESSD

ID Type Via Altitude (ft/m) Position (lat/lon) Dist (leg/tot) Name
O ESOW APT - 0 / 0 59.58980 / 16.63390 - / 0 nm Stockholm Vasteras
BOR VOR - 0 / 0 60.42150 / 15.51920 60 / 60 nm BORLANGE
O ESSD APT - 0 / 0 60.42210 / 15.51540 0 / 60 nm Borlange

Altitude Profile

Advertisement - Login to hide

ESOW

Details ICAO ESOW (VST)
Name Stockholm Vasteras
Region Sweden
Timezone Europe/Stockholm (UTC+2.0)
Stats Elevation 19 ft / 6 m (AMSL)
Location 59.589800° 16.633900°
Runways 1
Magnetic Variation 6.634° E

METAR

ESOW 201720Z AUTO 23014KT 200V260 9999 NCD 21/07 Q1010

Decode

TAF

Not found

Departure Runways

ID Width Length Bearing (true/mag) Surface Threshold Overrun Markings Lighting
01 148 ft / 45 m 8,476 ft / 2,584 m 11.65° / 5.01° ASPHALT 0 ft / 0 m 0 ft / 0 m PREC-APP CENTERLINE EDGE THRESHOLD SALS REIL-OMNI
19 148 ft / 45 m 8,476 ft / 2,584 m 191.65° / 185.02° ASPHALT 0 ft / 0 m 0 ft / 0 m PREC-APP CENTERLINE EDGE THRESHOLD CALVERT REIL-OMNI

ESSD

Details ICAO ESSD (BLE)
Name Borlange
Region Sweden
Timezone Europe/Stockholm (UTC+2.0)
Stats Elevation 502 ft / 153 m (AMSL)
Location 60.422100° 15.515400°
Runways 1
Magnetic Variation 6.337° E

METAR

ESSD 201720Z AUTO 24015KT 9999 SCT078/// 20/06 Q1008

Decode

TAF

Not found

Destination Runways

ID Width Length Bearing (true/mag) Surface Threshold Overrun Markings Lighting
14 148 ft / 45 m 7,561 ft / 2,305 m 132.46° / 126.13° ASPHALT 0 ft / 0 m 210 ft / 64 m APP EDGE THRESHOLD
32 148 ft / 45 m 7,561 ft / 2,305 m 312.49° / 306.15° ASPHALT 0 ft / 0 m 112 ft / 34 m PREC-APP EDGE THRESHOLD MALS

Approach Navaids

Runway Type Ident Frequency Range Bearing (true/mag) Slope Elevation
32 GS SD 109.50 MHz 10 nm / 19 km 312.95° / 306.62 ° 3.00° 503 ft / 153 m (AMSL)
32 OM OM - - 312.48° / 306.14 ° - 503 ft / 153 m (AMSL)
32 MM MM - - 312.48° / 306.14 ° - 503 ft / 153 m (AMSL)
32 LOC-ILS SD 109.50 MHz 18 nm / 33 km 312.44° / 306.11 ° - 503 ft / 153 m (AMSL)

Popular Alternatives